Atkinson, New Hampshire
Current Conditions -  °F | °C
As of 9:54 PM on Friday 24 Oct 2014 (Local Time) from KLWM Reporting Station
Overcast Overcast  
Wind Chill: 44°   Ceiling: 3100
Heat Index: 48°   Visibility: 10mi
Dew Point: 41°   Wind: 9mph
Humidity: 77%   Direction: 300°WNW
Pressure: 29.76"   Gusts: NA
Location:  42.84°N, 71.15°W
Report Text: KLWM 250154Z 30008KT 10SM OVC031 09/05 A2976 RMK AO2 SLP077 T00890050
Loading
Personal Weather Stations






























Interactive Weather Map New forecast layout! Learn more

10-Day Weather Forecast

Advertisements
Track Severe Weather on mobile